createdAt,value
2023-05-06T00:00:24.519Z,0.20
2023-05-06T00:02:54.230Z,0.20
2023-05-06T00:05:23.898Z,0.20
2023-05-06T00:07:53.565Z,0.10
2023-05-06T00:10:23.198Z,0.20
2023-05-06T00:12:52.867Z,0.20
2023-05-06T00:15:22.515Z,0.30
2023-05-06T00:17:52.171Z,0.20
2023-05-06T00:20:22.227Z,0.30
2023-05-06T00:22:51.814Z,0.20
2023-05-06T00:25:22.017Z,0.20
2023-05-06T00:27:51.648Z,0.20
2023-05-06T00:30:21.461Z,0.30
2023-05-06T00:32:51.033Z,0.30
2023-05-06T00:35:24.567Z,0.22
2023-05-06T00:38:00.525Z,0.25
2023-05-06T00:40:30.093Z,0.38
2023-05-06T00:42:59.687Z,0.25
2023-05-06T00:45:29.468Z,0.30
2023-05-06T00:48:02.056Z,0.32
2023-05-06T00:50:33.984Z,0.30
2023-05-06T00:53:05.719Z,0.20
2023-05-06T00:55:38.617Z,0.20
2023-05-06T00:58:08.634Z,0.35
2023-05-06T01:00:39.100Z,0.30
2023-05-06T01:03:08.793Z,0.32
2023-05-06T01:05:49.442Z,0.30
2023-05-06T01:08:35.038Z,0.30
2023-05-06T01:11:56.470Z,0.20
2023-05-06T01:14:29.071Z,0.30
2023-05-06T01:17:02.271Z,0.20
2023-05-06T01:19:48.823Z,0.30
2023-05-06T01:22:19.044Z,0.40
2023-05-06T01:24:49.124Z,0.30
2023-05-06T01:27:19.801Z,0.40
2023-05-06T01:29:49.927Z,0.30
2023-05-06T01:32:23.407Z,0.30
2023-05-06T01:35:11.299Z,0.30
2023-05-06T01:37:54.779Z,0.28
2023-05-06T01:40:28.445Z,0.20
2023-05-06T01:42:58.453Z,0.20
2023-05-06T01:45:30.723Z,0.28
2023-05-06T01:48:00.430Z,0.20
2023-05-06T01:50:30.636Z,0.40
2023-05-06T01:53:04.499Z,0.20
2023-05-06T01:55:34.219Z,0.30
2023-05-06T01:58:03.800Z,0.25
2023-05-06T02:00:33.389Z,0.30
2023-05-06T02:03:03.040Z,0.30
2023-05-06T02:05:32.651Z,0.10
2023-05-06T02:08:02.275Z,0.10
2023-05-06T02:10:35.543Z,0.13
2023-05-06T02:13:05.236Z,0.20
2023-05-06T02:15:34.819Z,0.30
2023-05-06T02:18:04.403Z,0.20
2023-05-06T02:20:34.075Z,0.50
2023-05-06T02:23:03.666Z,0.30
2023-05-06T02:25:33.247Z,0.20
2023-05-06T02:28:02.872Z,0.20
2023-05-06T02:30:32.754Z,0.30
2023-05-06T02:33:02.461Z,0.20
2023-05-06T02:35:32.107Z,0.22
2023-05-06T02:38:03.184Z,0.20
2023-05-06T02:40:32.785Z,0.20
2023-05-06T02:43:03.077Z,0.25
2023-05-06T02:45:32.751Z,0.20
2023-05-06T02:48:04.238Z,0.10
2023-05-06T02:50:33.866Z,0.20
2023-05-06T02:53:03.464Z,0.17
2023-05-06T02:55:33.185Z,0.20
2023-05-06T02:58:02.722Z,0.30
2023-05-06T03:00:32.647Z,0.20
2023-05-06T03:03:02.676Z,0.30
2023-05-06T03:05:32.470Z,0.20
2023-05-06T03:08:02.114Z,0.20
2023-05-06T03:10:31.698Z,0.20
2023-05-06T03:13:01.334Z,0.25
2023-05-06T03:15:30.985Z,0.30
2023-05-06T03:18:00.648Z,0.30
2023-05-06T03:20:30.528Z,0.20
2023-05-06T03:23:00.115Z,0.10
2023-05-06T03:25:29.706Z,0.20
2023-05-06T03:27:59.302Z,0.20
2023-05-06T03:30:28.954Z,0.22
2023-05-06T03:32:58.727Z,0.20
2023-05-06T03:35:28.429Z,0.20
2023-05-06T03:37:58.015Z,0.20
2023-05-06T03:40:27.613Z,0.20
2023-05-06T03:42:57.367Z,0.30
2023-05-06T03:45:27.224Z,0.22
2023-05-06T03:47:58.448Z,0.30
2023-05-06T03:50:28.382Z,0.20
2023-05-06T03:52:57.977Z,0.20
2023-05-06T03:55:27.546Z,0.20
2023-05-06T03:57:57.262Z,0.22
2023-05-06T04:00:27.522Z,0.10
2023-05-06T04:02:57.380Z,0.20
2023-05-06T04:05:27.040Z,0.10
2023-05-06T04:07:56.962Z,0.20
2023-05-06T04:10:26.604Z,0.13
2023-05-06T04:12:56.294Z,0.30
2023-05-06T04:15:26.099Z,0.10
2023-05-06T04:17:55.824Z,0.10
2023-05-06T04:20:25.506Z,0.20
2023-05-06T04:22:55.055Z,0.28
2023-05-06T04:25:24.809Z,0.20
2023-05-06T04:27:54.800Z,0.20
2023-05-06T04:30:24.587Z,0.20
2023-05-06T04:32:56.656Z,0.10
2023-05-06T04:35:26.339Z,0.22
2023-05-06T04:37:55.948Z,0.10
2023-05-06T04:40:27.852Z,0.20
2023-05-06T04:42:57.535Z,0.20
2023-05-06T04:45:27.541Z,0.10
2023-05-06T04:47:57.306Z,0.10
2023-05-06T04:50:26.963Z,0.20
2023-05-06T04:52:56.551Z,0.15
2023-05-06T04:55:26.186Z,0.20
2023-05-06T04:57:55.758Z,0.10
2023-05-06T05:00:27.719Z,0.30
2023-05-06T05:02:57.455Z,0.20
2023-05-06T05:05:28.990Z,0.20
2023-05-06T05:07:58.843Z,0.20
2023-05-06T05:10:28.465Z,0.10
2023-05-06T05:12:58.093Z,0.03
2023-05-06T05:15:27.674Z,0.30
2023-05-06T05:17:57.366Z,0.20
2023-05-06T05:20:26.987Z,0.25
2023-05-06T05:22:58.724Z,0.10
2023-05-06T05:25:28.537Z,0.17
2023-05-06T05:27:58.127Z,0.20
2023-05-06T05:30:27.809Z,0.00
2023-05-06T05:32:57.714Z,0.20
2023-05-06T05:35:27.276Z,0.17
2023-05-06T05:37:57.264Z,0.20
2023-05-06T05:40:26.892Z,0.25
2023-05-06T05:43:00.165Z,0.20
2023-05-06T05:45:33.252Z,0.20
2023-05-06T05:48:02.857Z,0.35
2023-05-06T05:50:32.564Z,0.20
2023-05-06T05:53:02.238Z,0.20
2023-05-06T05:55:32.235Z,0.20
2023-05-06T05:58:01.978Z,0.20
2023-05-06T06:00:31.680Z,0.20
2023-05-06T06:03:01.394Z,0.30
2023-05-06T06:05:31.106Z,0.30
2023-05-06T06:08:03.670Z,0.20
2023-05-06T06:10:33.672Z,0.40
2023-05-06T06:13:04.541Z,0.28
2023-05-06T06:15:34.267Z,0.20
2023-05-06T06:18:03.997Z,0.20
2023-05-06T06:20:33.806Z,0.40
2023-05-06T06:23:03.674Z,0.30
2023-05-06T06:25:33.288Z,0.47
2023-05-06T06:28:02.844Z,0.20
2023-05-06T06:30:32.476Z,0.30
2023-05-06T06:33:03.008Z,0.50
2023-05-06T06:35:32.671Z,0.40
2023-05-06T06:38:02.397Z,0.45
2023-05-06T06:40:32.038Z,0.40
2023-05-06T06:43:02.717Z,0.32
2023-05-06T06:45:32.396Z,0.22
2023-05-06T06:48:02.323Z,0.40
2023-05-06T06:50:31.962Z,0.40
2023-05-06T06:53:02.042Z,0.55
2023-05-06T06:55:32.520Z,0.40
2023-05-06T06:58:02.095Z,0.30
2023-05-06T07:00:31.696Z,0.50
2023-05-06T07:03:01.269Z,0.50
2023-05-06T07:05:31.049Z,0.50
2023-05-06T07:08:00.713Z,0.60
2023-05-06T07:10:30.373Z,0.57
2023-05-06T07:12:59.990Z,0.50
2023-05-06T07:15:29.688Z,0.52
2023-05-06T07:17:59.265Z,0.50
2023-05-06T07:20:28.944Z,0.50
2023-05-06T07:22:58.610Z,0.52
2023-05-06T07:25:29.238Z,0.68
2023-05-06T07:27:58.942Z,0.55
2023-05-06T07:30:28.623Z,0.60
2023-05-06T07:32:58.445Z,0.52
2023-05-06T07:35:28.094Z,0.50
2023-05-06T07:37:57.678Z,0.70
2023-05-06T07:40:27.523Z,0.70
2023-05-06T07:42:57.312Z,0.73
2023-05-06T07:45:27.043Z,0.60
2023-05-06T07:47:56.742Z,0.55
2023-05-06T07:50:26.489Z,0.70
2023-05-06T07:52:56.064Z,0.80
2023-05-06T07:55:25.743Z,0.70
2023-05-06T07:57:55.302Z,0.82
2023-05-06T08:00:24.924Z,0.80
2023-05-06T08:02:54.621Z,0.80
2023-05-06T08:05:24.277Z,0.95
2023-05-06T08:07:54.022Z,0.98
2023-05-06T08:10:24.469Z,0.85
2023-05-06T08:12:54.058Z,0.90
2023-05-06T08:15:23.696Z,1.00
2023-05-06T08:17:53.340Z,1.00
2023-05-06T08:20:22.971Z,0.90
2023-05-06T08:22:52.592Z,0.90
2023-05-06T08:25:22.194Z,1.05
2023-05-06T08:27:51.989Z,1.00
2023-05-06T08:30:21.649Z,0.80
2023-05-06T08:32:51.359Z,1.20
2023-05-06T08:35:21.107Z,1.10
2023-05-06T08:37:50.711Z,1.00
2023-05-06T08:40:21.906Z,1.10
2023-05-06T08:42:52.843Z,1.33
2023-05-06T08:45:22.767Z,1.48
2023-05-06T08:47:52.485Z,1.13
2023-05-06T08:50:22.538Z,1.50
2023-05-06T08:52:53.534Z,1.48
2023-05-06T08:55:24.698Z,1.60
2023-05-06T08:57:55.254Z,1.60
2023-05-06T09:00:24.919Z,1.42
2023-05-06T09:02:54.557Z,1.40
2023-05-06T09:05:24.531Z,1.60
2023-05-06T09:07:54.240Z,1.58
2023-05-06T09:10:23.943Z,1.58
2023-05-06T09:12:56.808Z,1.40
2023-05-06T09:15:30.094Z,1.35
2023-05-06T09:17:59.729Z,1.58
2023-05-06T09:20:29.272Z,1.67
2023-05-06T09:22:58.890Z,1.60
2023-05-06T09:25:28.835Z,2.20
2023-05-06T09:28:12.860Z,1.90
2023-05-06T09:30:49.234Z,2.10
2023-05-06T09:33:18.814Z,1.90
2023-05-06T09:35:51.436Z,2.10
2023-05-06T09:38:21.148Z,1.92
2023-05-06T09:40:50.756Z,2.03
2023-05-06T09:43:20.400Z,2.35
2023-05-06T09:45:50.239Z,2.30
2023-05-06T09:48:19.857Z,2.22
2023-05-06T09:50:50.122Z,2.45
2023-05-06T09:53:20.345Z,2.20
2023-05-06T09:55:49.956Z,2.25
2023-05-06T09:58:21.886Z,2.47
2023-05-06T10:00:52.504Z,2.47
2023-05-06T10:03:22.799Z,2.70
2023-05-06T10:05:56.215Z,2.50
2023-05-06T10:08:29.705Z,2.30
2023-05-06T10:10:59.259Z,2.50
2023-05-06T10:13:29.786Z,2.50
2023-05-06T10:16:02.382Z,3.08
2023-05-06T10:18:32.710Z,2.75
2023-05-06T10:21:03.028Z,3.15
2023-05-06T10:23:44.805Z,2.83
2023-05-06T10:26:14.889Z,2.78
2023-05-06T10:28:45.522Z,3.03
2023-05-06T10:31:16.291Z,2.83
2023-05-06T10:33:49.743Z,2.83
2023-05-06T10:36:30.743Z,2.90
2023-05-06T10:39:02.326Z,3.20
2023-05-06T10:41:35.208Z,2.97
2023-05-06T10:44:04.757Z,2.83
2023-05-06T10:46:34.480Z,3.70
2023-05-06T10:49:07.698Z,3.45
2023-05-06T10:51:38.093Z,3.78
2023-05-06T10:54:08.691Z,3.55
2023-05-06T10:56:40.577Z,3.53
2023-05-06T10:59:17.228Z,3.10
2023-05-06T11:01:47.323Z,3.40
2023-05-06T11:04:25.092Z,3.35
2023-05-06T11:06:55.967Z,3.42
2023-05-06T11:09:29.049Z,4.05
2023-05-06T11:12:06.264Z,3.85
2023-05-06T11:14:37.178Z,3.97
2023-05-06T11:17:11.477Z,3.40
2023-05-06T11:19:41.859Z,4.03
2023-05-06T11:22:11.535Z,4.10
2023-05-06T11:24:41.449Z,3.90
2023-05-06T11:27:12.121Z,4.13
2023-05-06T11:29:41.771Z,3.85
2023-05-06T11:32:25.338Z,4.20
2023-05-06T11:35:00.436Z,4.30
2023-05-06T11:37:31.480Z,3.55
2023-05-06T11:40:01.141Z,4.22
2023-05-06T11:42:31.457Z,4.25
2023-05-06T11:45:03.858Z,3.95
2023-05-06T11:47:33.475Z,4.00
2023-05-06T11:50:09.169Z,4.47
2023-05-06T11:52:38.932Z,4.63
2023-05-06T11:55:11.599Z,4.50
2023-05-06T11:57:46.383Z,4.30
2023-05-06T12:00:16.447Z,4.38
2023-05-06T12:02:46.133Z,4.47
2023-05-06T12:05:15.768Z,4.63
2023-05-06T12:07:47.172Z,4.55
2023-05-06T12:10:18.561Z,4.72
2023-05-06T12:12:48.325Z,4.80
2023-05-06T12:15:18.158Z,4.60
2023-05-06T12:17:47.842Z,4.63
2023-05-06T12:20:17.546Z,4.50
2023-05-06T12:22:47.330Z,4.65
2023-05-06T12:25:17.823Z,4.82
2023-05-06T12:27:47.629Z,5.00
2023-05-06T12:30:17.321Z,5.07
2023-05-06T12:33:03.522Z,5.03
2023-05-06T12:35:34.539Z,5.00
2023-05-06T12:38:14.656Z,5.30
2023-05-06T12:40:49.811Z,5.10
2023-05-06T12:43:19.382Z,5.15
2023-05-06T12:46:10.937Z,4.88
2023-05-06T12:48:42.145Z,5.78
2023-05-06T12:51:23.589Z,5.32
2023-05-06T12:53:55.954Z,5.35
2023-05-06T12:56:25.872Z,5.53
2023-05-06T12:59:05.829Z,5.43
2023-05-06T13:01:35.562Z,5.65
2023-05-06T13:04:05.255Z,5.63
2023-05-06T13:06:34.866Z,5.63
2023-05-06T13:09:04.429Z,5.95
2023-05-06T13:11:34.075Z,5.85
2023-05-06T13:14:03.649Z,6.25
2023-05-06T13:16:33.741Z,5.60
2023-05-06T13:19:04.595Z,5.95
2023-05-06T13:21:34.388Z,6.18
2023-05-06T13:24:04.100Z,6.90
2023-05-06T13:26:34.246Z,6.43
2023-05-06T13:29:04.222Z,6.75
2023-05-06T13:31:34.664Z,6.50
2023-05-06T13:34:04.433Z,6.82
2023-05-06T13:36:34.102Z,7.65
2023-05-06T13:39:04.185Z,7.05
2023-05-06T13:41:34.370Z,7.03
2023-05-06T13:44:04.060Z,7.20
2023-05-06T13:46:33.845Z,7.70
2023-05-06T13:49:03.440Z,7.93
2023-05-06T13:51:35.033Z,8.82
2023-05-06T13:54:05.335Z,8.75
2023-05-06T13:56:35.962Z,8.57
2023-05-06T13:59:05.837Z,9.05
2023-05-06T14:01:35.857Z,9.57
2023-05-06T14:04:05.649Z,9.02
2023-05-06T14:06:35.315Z,9.52
2023-05-06T14:09:06.134Z,9.27
2023-05-06T14:11:36.542Z,9.73
2023-05-06T14:14:06.903Z,9.02
2023-05-06T14:16:36.638Z,10.10
2023-05-06T14:19:07.253Z,9.75
2023-05-06T14:21:39.504Z,9.73
2023-05-06T14:24:09.393Z,10.05
2023-05-06T14:26:39.042Z,10.43
2023-05-06T14:29:08.726Z,10.98
2023-05-06T14:31:38.365Z,10.82
2023-05-06T14:34:08.011Z,10.88
2023-05-06T14:36:37.608Z,11.30
2023-05-06T14:39:07.180Z,11.15
2023-05-06T14:41:36.786Z,12.10
2023-05-06T14:44:06.692Z,10.90
2023-05-06T14:46:36.352Z,12.48
2023-05-06T14:49:05.920Z,11.23
2023-05-06T14:51:35.946Z,12.30
2023-05-06T14:54:05.642Z,11.63
2023-05-06T14:56:35.249Z,11.98
2023-05-06T14:59:08.095Z,12.98
2023-05-06T15:01:37.771Z,12.40
2023-05-06T15:04:07.838Z,13.18
2023-05-06T15:06:37.703Z,13.55
2023-05-06T15:09:07.371Z,12.90
2023-05-06T15:11:37.995Z,13.55
2023-05-06T15:14:07.661Z,13.02
2023-05-06T15:16:37.545Z,12.65
2023-05-06T15:19:07.349Z,12.70
2023-05-06T15:21:37.125Z,13.40
2023-05-06T15:24:06.962Z,14.10
2023-05-06T15:26:36.977Z,12.98
2023-05-06T15:29:08.088Z,14.18
2023-05-06T15:31:40.630Z,13.05
2023-05-06T15:34:12.245Z,13.77
2023-05-06T15:36:45.715Z,13.57
2023-05-06T15:39:15.333Z,14.02
2023-05-06T15:41:44.944Z,14.15
2023-05-06T15:44:16.393Z,13.32
2023-05-06T15:46:46.231Z,14.13
2023-05-06T15:49:39.482Z,14.73
2023-05-06T15:52:05.531Z,14.23
2023-05-06T15:54:37.974Z,14.63
2023-05-06T15:57:07.699Z,14.70
2023-05-06T15:59:37.306Z,15.55
2023-05-06T16:04:39.556Z,14.65
2023-05-06T16:07:09.388Z,14.85
2023-05-06T16:09:39.038Z,14.65
2023-05-06T16:12:08.899Z,15.30
2023-05-06T16:14:38.439Z,14.70
2023-05-06T16:17:10.890Z,15.88
2023-05-06T16:19:42.912Z,14.30
2023-05-06T16:22:12.472Z,15.05
2023-05-06T16:24:42.157Z,13.82
2023-05-06T16:27:11.876Z,15.18
2023-05-06T16:29:41.498Z,14.82
2023-05-06T16:32:11.149Z,14.98
2023-05-06T16:34:43.672Z,14.80
2023-05-06T16:37:15.038Z,15.82
2023-05-06T16:39:44.668Z,14.45
2023-05-06T16:42:14.296Z,15.68
2023-05-06T16:44:43.904Z,14.75
2023-05-06T16:47:13.956Z,15.07
2023-05-06T16:49:47.047Z,15.07
2023-05-06T16:52:16.656Z,15.52
2023-05-06T16:54:49.294Z,16.13
2023-05-06T16:57:21.130Z,15.43
2023-05-06T16:59:50.712Z,15.02
2023-05-06T17:02:20.385Z,15.52
2023-05-06T17:04:49.977Z,15.93
2023-05-06T17:07:19.536Z,13.88
2023-05-06T17:09:49.121Z,15.68
2023-05-06T17:12:18.678Z,15.45
2023-05-06T17:14:48.270Z,16.05
2023-05-06T17:17:18.243Z,16.10
2023-05-06T17:19:49.311Z,15.85
2023-05-06T17:22:18.898Z,15.90
2023-05-06T17:24:48.608Z,16.40
2023-05-06T17:27:18.794Z,16.55
2023-05-06T17:29:48.352Z,15.63
2023-05-06T17:32:18.155Z,16.13
2023-05-06T17:34:47.860Z,16.77
2023-05-06T17:37:17.555Z,15.93
2023-05-06T17:39:47.897Z,16.27
2023-05-06T17:42:17.489Z,16.42
2023-05-06T17:44:47.075Z,15.52
2023-05-06T17:47:17.121Z,15.77
2023-05-06T17:49:47.186Z,15.88
2023-05-06T17:52:16.764Z,16.17
2023-05-06T17:54:49.492Z,16.20
2023-05-06T17:57:23.622Z,16.48
2023-05-06T17:59:53.315Z,15.90
2023-05-06T18:02:23.298Z,15.95
2023-05-06T18:04:53.313Z,14.55
2023-05-06T18:07:22.950Z,15.88
2023-05-06T18:09:53.753Z,15.20
2023-05-06T18:12:23.697Z,15.43
2023-05-06T18:14:54.062Z,15.32
2023-05-06T18:17:23.684Z,16.17
2023-05-06T18:19:53.747Z,16.35
2023-05-06T18:22:23.333Z,15.77
2023-05-06T18:25:05.332Z,15.57
2023-05-06T18:27:40.731Z,15.93
2023-05-06T18:30:10.978Z,15.73
2023-05-06T18:32:40.978Z,15.70
2023-05-06T18:35:12.465Z,15.70
2023-05-06T18:37:42.868Z,15.32
2023-05-06T18:40:12.869Z,15.73
2023-05-06T18:42:42.880Z,15.75
2023-05-06T18:45:13.257Z,15.25
2023-05-06T18:47:43.052Z,15.20
2023-05-06T18:50:12.991Z,15.93
2023-05-06T18:52:42.860Z,15.45
2023-05-06T18:55:12.911Z,14.93
2023-05-06T18:57:42.690Z,16.13
2023-05-06T19:00:15.094Z,15.75
2023-05-06T19:02:47.727Z,16.25
2023-05-06T19:05:17.439Z,15.02
2023-05-06T19:07:46.986Z,16.38
2023-05-06T19:10:16.666Z,16.10
2023-05-06T19:12:47.154Z,15.48
2023-05-06T19:15:20.721Z,16.13
2023-05-06T19:17:50.341Z,16.07
2023-05-06T19:20:20.004Z,16.02
2023-05-06T19:22:49.634Z,16.02
2023-05-06T19:25:19.253Z,17.05
2023-05-06T19:27:48.939Z,15.65
2023-05-06T19:30:18.536Z,16.02
2023-05-06T19:32:48.170Z,15.50
2023-05-06T19:35:19.005Z,15.48
2023-05-06T19:37:49.112Z,16.67
2023-05-06T19:40:20.463Z,15.50
2023-05-06T19:42:50.158Z,15.35
2023-05-06T19:45:19.797Z,16.40
2023-05-06T19:47:49.465Z,15.90
2023-05-06T19:50:19.329Z,15.32
2023-05-06T19:52:48.943Z,15.88
2023-05-06T19:55:19.887Z,16.60
2023-05-06T19:57:49.568Z,16.65
2023-05-06T20:00:21.574Z,15.52
2023-05-06T20:02:51.332Z,15.68
2023-05-06T20:05:21.041Z,15.52
2023-05-06T20:07:52.186Z,16.05
2023-05-06T20:10:22.185Z,14.90
2023-05-06T20:12:52.045Z,14.75
2023-05-06T20:15:22.028Z,14.98
2023-05-06T20:17:51.734Z,15.50
2023-05-06T20:20:21.467Z,15.35
2023-05-06T20:22:51.086Z,14.88
2023-05-06T20:25:20.722Z,16.20
2023-05-06T20:27:50.253Z,15.25
2023-05-06T20:30:19.954Z,14.90
2023-05-06T20:32:52.000Z,15.73
2023-05-06T20:35:21.841Z,14.82
2023-05-06T20:37:51.517Z,15.25
2023-05-06T20:40:21.421Z,14.38
2023-05-06T20:42:51.015Z,15.23
2023-05-06T20:45:20.680Z,16.27
2023-05-06T20:47:50.259Z,17.33
2023-05-06T20:50:20.252Z,14.98
2023-05-06T20:52:50.149Z,15.10
2023-05-06T20:55:22.031Z,14.90
2023-05-06T20:57:51.941Z,14.63
2023-05-06T21:00:22.088Z,15.40
2023-05-06T21:02:51.748Z,15.10
2023-05-06T21:05:21.321Z,15.27
2023-05-06T21:07:50.874Z,14.65
2023-05-06T21:10:20.491Z,15.00
2023-05-06T21:12:51.184Z,16.00
2023-05-06T21:15:20.884Z,15.60
2023-05-06T21:17:51.592Z,14.93
2023-05-06T21:20:21.376Z,14.93
2023-05-06T21:22:51.022Z,15.13
2023-05-06T21:25:20.714Z,15.75
2023-05-06T21:27:50.274Z,15.43
2023-05-06T21:30:19.936Z,14.30
2023-05-06T21:32:50.067Z,14.80
2023-05-06T21:35:19.707Z,15.52
2023-05-06T21:37:49.292Z,14.13
2023-05-06T21:40:18.987Z,14.95
2023-05-06T21:42:48.589Z,14.50
2023-05-06T21:45:18.261Z,15.07
2023-05-06T21:47:47.895Z,16.65
2023-05-06T21:50:17.681Z,15.70
2023-05-06T21:52:47.302Z,15.65
2023-05-06T21:55:17.017Z,15.07
2023-05-06T21:57:46.653Z,15.98
2023-05-06T22:00:16.711Z,15.82
2023-05-06T22:02:47.783Z,14.98
2023-05-06T22:05:17.862Z,15.43
2023-05-06T22:07:48.350Z,15.80
2023-05-06T22:10:17.950Z,15.80
2023-05-06T22:12:47.838Z,16.20
2023-05-06T22:15:17.624Z,15.32
2023-05-06T22:17:47.788Z,15.45
2023-05-06T22:20:18.993Z,16.27
2023-05-06T22:22:48.712Z,15.10
2023-05-06T22:25:18.256Z,16.55
2023-05-06T22:27:47.850Z,15.50
2023-05-06T22:30:17.803Z,15.55
2023-05-06T22:32:47.573Z,14.75
2023-05-06T22:35:17.595Z,15.27
2023-05-06T22:37:47.770Z,15.60
2023-05-06T22:40:17.454Z,14.75
2023-05-06T22:42:47.618Z,15.45
2023-05-06T22:45:17.261Z,15.20
2023-05-06T22:47:46.907Z,15.45
2023-05-06T22:50:16.577Z,14.80
2023-05-06T22:52:46.193Z,15.35
2023-05-06T22:55:16.649Z,15.32
2023-05-06T22:57:46.491Z,14.73
2023-05-06T23:00:16.413Z,14.50
2023-05-06T23:02:46.364Z,15.13
2023-05-06T23:05:16.061Z,16.15
2023-05-06T23:07:45.665Z,15.55
2023-05-06T23:10:15.270Z,15.68
2023-05-06T23:12:44.951Z,14.90
2023-05-06T23:15:14.619Z,14.77
2023-05-06T23:17:44.250Z,15.32
2023-05-06T23:20:14.365Z,15.38
2023-05-06T23:22:44.038Z,15.48
2023-05-06T23:25:14.078Z,15.55
2023-05-06T23:27:44.529Z,15.43
2023-05-06T23:30:15.161Z,15.20
2023-05-06T23:32:44.818Z,15.23
2023-05-06T23:35:14.629Z,15.70
2023-05-06T23:37:44.289Z,15.25
2023-05-06T23:40:15.482Z,14.23
2023-05-06T23:42:45.117Z,14.88
2023-05-06T23:45:14.932Z,15.00
2023-05-06T23:47:44.553Z,13.70
2023-05-06T23:50:14.863Z,15.63
2023-05-06T23:52:44.591Z,15.27
2023-05-06T23:55:14.591Z,14.80
2023-05-06T23:57:44.192Z,14.73
